createdAt,value
2018-08-06T00:01:34.968Z,26.82
2018-08-06T00:04:02.448Z,26.88
2018-08-06T00:06:29.921Z,26.80
2018-08-06T00:08:57.360Z,26.81
2018-08-06T00:11:24.836Z,26.83
2018-08-06T00:13:52.428Z,26.82
2018-08-06T00:16:19.809Z,26.74
2018-08-06T00:18:47.269Z,26.65
2018-08-06T00:21:14.713Z,26.58
2018-08-06T00:23:42.106Z,26.58
2018-08-06T00:26:09.731Z,26.57
2018-08-06T00:28:37.215Z,26.64
2018-08-06T00:31:04.672Z,26.57
2018-08-06T00:33:32.122Z,26.47
2018-08-06T00:35:59.675Z,26.36
2018-08-06T00:38:27.129Z,26.30
2018-08-06T00:40:54.614Z,26.30
2018-08-06T00:43:22.048Z,26.29
2018-08-06T00:45:49.523Z,26.23
2018-08-06T00:48:16.927Z,26.15
2018-08-06T00:50:44.346Z,26.14
2018-08-06T00:53:11.750Z,26.12
2018-08-06T00:55:39.305Z,26.22
2018-08-06T00:58:06.738Z,26.28
2018-08-06T01:00:34.172Z,26.34
2018-08-06T01:03:01.604Z,26.38
2018-08-06T01:05:29.052Z,26.43
2018-08-06T01:07:56.044Z,26.44
2018-08-06T01:10:23.024Z,26.44
2018-08-06T01:12:50.014Z,26.39
2018-08-06T01:15:16.982Z,26.36
2018-08-06T01:17:44.001Z,26.34
2018-08-06T01:20:11.075Z,26.25
2018-08-06T01:22:38.125Z,26.11
2018-08-06T01:25:05.529Z,26.05
2018-08-06T01:27:32.575Z,26.00
2018-08-06T01:29:59.750Z,26.00
2018-08-06T01:32:26.747Z,25.99
2018-08-06T01:34:54.144Z,25.93
2018-08-06T01:37:21.619Z,25.88
2018-08-06T01:39:49.102Z,25.91
2018-08-06T01:42:16.535Z,25.91
2018-08-06T01:44:43.827Z,25.96
2018-08-06T01:47:10.892Z,25.90
2018-08-06T01:49:38.075Z,25.77
2018-08-06T01:52:05.049Z,25.76
2018-08-06T01:54:31.989Z,25.62
2018-08-06T01:56:59.446Z,25.38
2018-08-06T01:59:26.930Z,25.50
2018-08-06T02:01:54.409Z,25.48
2018-08-06T02:04:22.329Z,25.51
2018-08-06T02:06:49.741Z,25.47
2018-08-06T02:09:17.186Z,25.41
2018-08-06T02:11:44.581Z,25.48
2018-08-06T02:14:11.995Z,25.49
2018-08-06T02:16:39.484Z,25.47
2018-08-06T02:19:06.961Z,25.35
2018-08-06T02:21:34.375Z,25.26
2018-08-06T02:24:01.829Z,25.28
2018-08-06T02:26:29.287Z,25.25
2018-08-06T02:28:56.836Z,25.22
2018-08-06T02:31:24.269Z,25.29
2018-08-06T02:33:51.662Z,25.36
2018-08-06T02:36:19.113Z,25.27
2018-08-06T02:38:46.524Z,25.21
2018-08-06T02:41:14.016Z,25.22
2018-08-06T02:43:41.471Z,25.23
2018-08-06T02:46:08.913Z,25.24
2018-08-06T02:48:36.471Z,25.20
2018-08-06T02:51:03.919Z,25.17
2018-08-06T02:53:31.418Z,25.13
2018-08-06T02:55:58.882Z,25.13
2018-08-06T02:58:26.449Z,25.09
2018-08-06T03:00:54.071Z,25.09
2018-08-06T03:03:21.474Z,25.12
2018-08-06T03:05:48.975Z,25.13
2018-08-06T03:08:16.538Z,25.18
2018-08-06T03:10:43.991Z,25.19
2018-08-06T03:13:11.476Z,25.19
2018-08-06T03:15:38.944Z,25.20
2018-08-06T03:18:06.436Z,25.15
2018-08-06T03:20:33.844Z,25.10
2018-08-06T03:23:01.342Z,25.08
2018-08-06T03:25:28.786Z,25.09
2018-08-06T03:27:56.234Z,25.10
2018-08-06T03:30:23.654Z,25.08
2018-08-06T03:32:51.061Z,25.08
2018-08-06T03:35:18.571Z,25.04
2018-08-06T03:37:45.978Z,25.03
2018-08-06T03:40:13.481Z,25.05
2018-08-06T03:42:41.630Z,25.08
2018-08-06T03:45:09.143Z,25.04
2018-08-06T03:47:36.608Z,25.03
2018-08-06T03:50:04.034Z,25.07
2018-08-06T03:52:31.516Z,25.00
2018-08-06T03:54:59.005Z,24.92
2018-08-06T03:57:26.417Z,24.89
2018-08-06T03:59:53.895Z,24.97
2018-08-06T04:02:21.305Z,25.06
2018-08-06T04:04:48.783Z,25.16
2018-08-06T04:07:16.228Z,25.23
2018-08-06T04:09:43.634Z,25.23
2018-08-06T04:12:11.053Z,25.20
2018-08-06T04:14:38.516Z,25.18
2018-08-06T04:17:05.967Z,25.15
2018-08-06T04:19:33.425Z,24.94
2018-08-06T04:22:00.886Z,24.84
2018-08-06T04:24:28.319Z,24.74
2018-08-06T04:26:55.779Z,24.90
2018-08-06T04:29:23.257Z,25.03
2018-08-06T04:31:50.744Z,25.09
2018-08-06T04:34:18.181Z,25.17
2018-08-06T04:36:45.701Z,25.18
2018-08-06T04:39:13.150Z,25.19
2018-08-06T04:41:40.677Z,25.34
2018-08-06T04:44:08.121Z,25.41
2018-08-06T04:46:35.511Z,25.47
2018-08-06T04:49:02.943Z,25.58
2018-08-06T04:51:30.348Z,25.66
2018-08-06T04:53:57.820Z,25.66
2018-08-06T04:56:25.294Z,25.58
2018-08-06T04:58:52.719Z,25.54
2018-08-06T05:01:20.304Z,25.68
2018-08-06T05:03:47.723Z,25.77
2018-08-06T05:06:15.145Z,25.86
2018-08-06T05:08:42.604Z,25.90
2018-08-06T05:11:10.031Z,25.85
2018-08-06T05:13:37.504Z,25.83
2018-08-06T05:16:04.993Z,25.87
2018-08-06T05:18:32.505Z,25.80
2018-08-06T05:20:59.961Z,25.79
2018-08-06T05:23:27.736Z,25.86
2018-08-06T05:25:55.178Z,26.00
2018-08-06T05:28:22.656Z,26.05
2018-08-06T05:30:50.106Z,26.12
2018-08-06T05:33:17.557Z,26.24
2018-08-06T05:35:45.094Z,26.51
2018-08-06T05:38:12.577Z,26.60
2018-08-06T05:40:43.671Z,26.61
2018-08-06T05:43:11.101Z,26.66
2018-08-06T05:45:38.472Z,26.64
2018-08-06T05:48:05.968Z,26.73
2018-08-06T05:50:33.412Z,26.78
2018-08-06T05:53:01.101Z,26.56
2018-08-06T05:55:28.508Z,26.61
2018-08-06T05:57:56.055Z,26.66
2018-08-06T06:00:23.488Z,26.68
2018-08-06T06:02:50.950Z,26.78
2018-08-06T06:05:18.507Z,26.95
2018-08-06T06:07:46.169Z,27.12
2018-08-06T06:10:13.744Z,27.23
2018-08-06T06:12:41.206Z,27.35
2018-08-06T06:15:08.605Z,27.55
2018-08-06T06:17:36.053Z,27.56
2018-08-06T06:20:03.539Z,27.52
2018-08-06T06:22:31.059Z,27.58
2018-08-06T06:24:58.519Z,27.66
2018-08-06T06:27:25.990Z,27.76
2018-08-06T06:29:53.494Z,27.94
2018-08-06T06:32:21.178Z,28.04
2018-08-06T06:34:48.722Z,28.16
2018-08-06T06:37:16.128Z,28.32
2018-08-06T06:39:43.634Z,28.46
2018-08-06T06:42:11.025Z,28.63
2018-08-06T06:44:38.503Z,28.85
2018-08-06T06:47:05.921Z,28.83
2018-08-06T06:49:33.505Z,28.82
2018-08-06T06:52:01.133Z,29.01
2018-08-06T06:54:28.722Z,29.11
2018-08-06T06:56:56.130Z,29.42
2018-08-06T06:59:23.771Z,29.74
2018-08-06T07:01:51.303Z,30.02
2018-08-06T07:04:18.909Z,30.35
2018-08-06T07:06:46.319Z,30.58
2018-08-06T07:09:13.760Z,30.76
2018-08-06T07:11:41.232Z,30.93
2018-08-06T07:14:08.737Z,31.22
2018-08-06T07:16:36.167Z,31.22
2018-08-06T07:19:03.704Z,31.33
2018-08-06T07:21:31.499Z,31.77
2018-08-06T07:23:58.992Z,32.05
2018-08-06T07:26:26.450Z,32.12
2018-08-06T07:28:53.875Z,32.39
2018-08-06T07:31:21.278Z,32.42
2018-08-06T07:33:48.779Z,32.67
2018-08-06T07:36:16.376Z,32.61
2018-08-06T07:38:43.855Z,32.67
2018-08-06T07:41:11.355Z,32.50
2018-08-06T07:43:38.851Z,32.51
2018-08-06T07:46:06.324Z,33.05
2018-08-06T07:48:33.322Z,33.36
2018-08-06T07:51:00.359Z,33.45
2018-08-06T07:53:27.356Z,32.93
2018-08-06T07:55:54.619Z,32.32
2018-08-06T07:58:21.704Z,32.60
2018-08-06T08:00:48.689Z,33.11
2018-08-06T08:03:15.695Z,33.25
2018-08-06T08:05:42.645Z,33.15
2018-08-06T08:08:09.640Z,33.24
2018-08-06T08:10:36.651Z,33.27
2018-08-06T08:13:03.704Z,33.28
2018-08-06T08:15:30.682Z,33.43
2018-08-06T08:17:57.825Z,33.79
2018-08-06T08:20:25.000Z,34.23
2018-08-06T08:22:52.005Z,33.74
2018-08-06T08:25:19.042Z,33.75
2018-08-06T08:27:46.026Z,33.83
2018-08-06T08:30:13.060Z,33.97
2018-08-06T08:32:40.000Z,33.77
2018-08-06T08:35:07.484Z,34.00
2018-08-06T08:37:34.887Z,34.10
2018-08-06T08:40:02.445Z,34.57
2018-08-06T08:42:29.898Z,34.72
2018-08-06T08:44:56.897Z,34.28
2018-08-06T08:47:23.883Z,34.32
2018-08-06T08:49:51.350Z,34.48
2018-08-06T08:52:18.829Z,34.75
2018-08-06T08:54:46.356Z,34.61
2018-08-06T08:57:13.815Z,34.12
2018-08-06T08:59:41.318Z,34.31
2018-08-06T09:02:08.987Z,33.96
2018-08-06T09:04:36.479Z,33.86
2018-08-06T09:07:03.921Z,34.22
2018-08-06T09:09:31.396Z,34.50
2018-08-06T09:11:58.427Z,34.36
2018-08-06T09:14:25.414Z,33.90
2018-08-06T09:16:52.449Z,33.75
2018-08-06T09:19:19.428Z,34.25
2018-08-06T09:21:47.075Z,34.92
2018-08-06T09:24:14.506Z,35.00
2018-08-06T09:26:41.532Z,35.06
2018-08-06T09:29:08.557Z,34.83
2018-08-06T09:31:36.006Z,34.83
2018-08-06T09:34:03.593Z,35.15
2018-08-06T09:36:30.969Z,35.34
2018-08-06T09:38:58.521Z,35.18
2018-08-06T09:41:26.002Z,35.50
2018-08-06T09:43:53.006Z,35.76
2018-08-06T09:46:21.086Z,35.90
2018-08-06T09:48:48.121Z,35.36
2018-08-06T09:51:15.107Z,35.03
2018-08-06T09:53:42.111Z,35.15
2018-08-06T09:56:09.154Z,34.86
2018-08-06T09:58:36.300Z,35.04
2018-08-06T10:01:03.812Z,35.39
2018-08-06T10:03:30.968Z,35.73
2018-08-06T10:05:59.352Z,35.94
2018-08-06T10:08:26.257Z,35.80
2018-08-06T10:10:53.723Z,35.79
2018-08-06T10:13:21.182Z,35.95
2018-08-06T10:15:48.708Z,36.04
2018-08-06T10:18:16.206Z,36.21
2018-08-06T10:20:49.556Z,36.03
2018-08-06T10:23:17.125Z,36.16
2018-08-06T10:25:44.607Z,36.41
2018-08-06T10:28:12.092Z,36.46
2018-08-06T10:30:39.649Z,36.73
2018-08-06T10:33:07.203Z,36.73
2018-08-06T10:35:34.229Z,36.42
2018-08-06T10:38:01.270Z,36.29
2018-08-06T10:40:28.298Z,36.34
2018-08-06T10:42:55.262Z,36.40
2018-08-06T10:45:22.235Z,36.64
2018-08-06T10:47:49.189Z,36.53
2018-08-06T10:50:16.155Z,36.54
2018-08-06T10:52:43.115Z,36.53
2018-08-06T10:55:10.098Z,36.80
2018-08-06T10:57:37.065Z,36.98
2018-08-06T11:00:04.196Z,37.11
2018-08-06T11:02:31.226Z,37.24
2018-08-06T11:04:58.239Z,37.15
2018-08-06T11:07:25.229Z,36.87
2018-08-06T11:09:52.236Z,37.00
2018-08-06T11:12:19.214Z,37.26
2018-08-06T11:14:46.693Z,37.47
2018-08-06T11:17:14.312Z,37.76
2018-08-06T11:19:41.775Z,37.65
2018-08-06T11:22:09.364Z,37.37
2018-08-06T11:24:36.886Z,37.52
2018-08-06T11:27:04.394Z,37.86
2018-08-06T11:29:31.868Z,37.74
2018-08-06T11:31:59.490Z,37.89
2018-08-06T11:34:26.927Z,37.79
2018-08-06T11:36:54.388Z,38.01
2018-08-06T11:39:21.883Z,37.93
2018-08-06T11:41:49.323Z,37.99
2018-08-06T11:44:16.761Z,37.86
2018-08-06T11:46:44.261Z,38.03
2018-08-06T11:49:12.363Z,38.14
2018-08-06T11:51:39.871Z,38.06
2018-08-06T11:54:07.307Z,38.24
2018-08-06T11:56:34.778Z,38.44
2018-08-06T11:59:02.227Z,38.40
2018-08-06T12:01:29.670Z,38.57
2018-08-06T12:03:57.107Z,38.46
2018-08-06T12:06:24.539Z,38.45
2018-08-06T12:08:51.984Z,38.18
2018-08-06T12:11:19.458Z,38.12
2018-08-06T12:13:46.993Z,38.18
2018-08-06T12:16:14.395Z,38.29
2018-08-06T12:18:42.055Z,38.20
2018-08-06T12:21:09.512Z,37.61
2018-08-06T12:23:37.063Z,37.98
2018-08-06T12:26:04.765Z,38.14
2018-08-06T12:28:32.187Z,38.55
2018-08-06T12:30:59.667Z,38.48
2018-08-06T12:33:27.262Z,38.38
2018-08-06T12:35:54.719Z,38.59
2018-08-06T12:38:22.245Z,38.74
2018-08-06T12:40:49.737Z,38.58
2018-08-06T12:43:17.185Z,38.66
2018-08-06T12:45:44.638Z,38.75
2018-08-06T12:48:12.070Z,38.55
2018-08-06T12:50:39.589Z,38.76
2018-08-06T12:53:07.052Z,39.05
2018-08-06T12:55:34.546Z,39.13
2018-08-06T12:58:02.082Z,38.90
2018-08-06T13:00:29.523Z,38.58
2018-08-06T13:02:56.971Z,38.38
2018-08-06T13:05:24.637Z,38.50
2018-08-06T13:07:52.089Z,38.64
2018-08-06T13:10:19.532Z,38.73
2018-08-06T13:12:47.005Z,38.82
2018-08-06T13:15:14.559Z,38.56
2018-08-06T13:17:42.149Z,37.92
2018-08-06T13:20:09.696Z,37.63
2018-08-06T13:22:37.215Z,38.03
2018-08-06T13:25:04.871Z,38.52
2018-08-06T13:27:32.297Z,38.90
2018-08-06T13:29:59.799Z,39.13
2018-08-06T13:32:27.284Z,39.16
2018-08-06T13:34:54.754Z,38.85
2018-08-06T13:37:22.200Z,38.70
2018-08-06T13:39:49.691Z,38.81
2018-08-06T13:42:17.149Z,39.10
2018-08-06T13:44:44.622Z,39.01
2018-08-06T13:47:12.107Z,39.15
2018-08-06T13:49:39.558Z,39.04
2018-08-06T13:52:07.040Z,39.04
2018-08-06T13:54:34.531Z,39.00
2018-08-06T13:57:02.008Z,39.08
2018-08-06T13:59:29.527Z,39.29
2018-08-06T14:01:57.216Z,39.39
2018-08-06T14:04:24.725Z,39.31
2018-08-06T14:06:52.273Z,39.16
2018-08-06T14:09:19.735Z,38.88
2018-08-06T14:11:47.264Z,38.70
2018-08-06T14:14:14.943Z,38.72
2018-08-06T14:16:42.414Z,38.99
2018-08-06T14:19:09.957Z,39.09
2018-08-06T14:21:37.493Z,38.93
2018-08-06T14:24:04.888Z,38.72
2018-08-06T14:26:32.373Z,38.37
2018-08-06T14:29:00.024Z,38.45
2018-08-06T14:31:27.567Z,38.53
2018-08-06T14:33:55.022Z,38.77
2018-08-06T14:36:22.452Z,38.50
2018-08-06T14:38:49.948Z,38.45
2018-08-06T14:41:17.467Z,38.31
2018-08-06T14:43:45.000Z,38.49
2018-08-06T14:46:12.679Z,38.76
2018-08-06T14:48:40.175Z,38.58
2018-08-06T14:51:07.635Z,38.72
2018-08-06T14:53:35.195Z,38.89
2018-08-06T14:56:02.858Z,38.74
2018-08-06T14:58:30.393Z,39.03
2018-08-06T15:00:57.914Z,39.04
2018-08-06T15:03:25.412Z,39.03
2018-08-06T15:05:52.922Z,38.91
2018-08-06T15:08:20.335Z,38.88
2018-08-06T15:10:47.762Z,39.04
2018-08-06T15:13:15.368Z,38.74
2018-08-06T15:15:42.766Z,38.10
2018-08-06T15:18:10.178Z,37.74
2018-08-06T15:20:37.621Z,37.55
2018-08-06T15:23:05.058Z,37.32
2018-08-06T15:25:32.797Z,37.22
2018-08-06T15:28:00.274Z,37.32
2018-08-06T15:30:27.731Z,37.63
2018-08-06T15:32:55.336Z,37.67
2018-08-06T15:35:22.757Z,37.53
2018-08-06T15:37:50.216Z,37.30
2018-08-06T15:40:17.848Z,36.92
2018-08-06T15:42:45.331Z,36.49
2018-08-06T15:45:12.800Z,35.96
2018-08-06T15:47:40.385Z,35.72
2018-08-06T15:50:07.835Z,35.37
2018-08-06T15:52:35.289Z,35.32
2018-08-06T15:55:03.595Z,35.66
2018-08-06T15:57:31.286Z,35.69
2018-08-06T15:59:58.744Z,35.80
2018-08-06T16:02:27.972Z,35.94
2018-08-06T16:04:55.408Z,36.10
2018-08-06T16:07:22.898Z,35.74
2018-08-06T16:09:50.369Z,35.30
2018-08-06T16:12:17.807Z,35.22
2018-08-06T16:14:45.268Z,35.36
2018-08-06T16:17:12.774Z,35.40
2018-08-06T16:19:40.386Z,35.42
2018-08-06T16:22:07.847Z,35.22
2018-08-06T16:24:35.273Z,35.14
2018-08-06T16:27:02.766Z,35.09
2018-08-06T16:29:30.170Z,35.02
2018-08-06T16:31:57.639Z,34.87
2018-08-06T16:34:25.259Z,34.83
2018-08-06T16:36:52.735Z,34.65
2018-08-06T16:39:20.277Z,34.51
2018-08-06T16:41:47.761Z,34.53
2018-08-06T16:44:15.209Z,34.55
2018-08-06T16:46:42.713Z,34.59
2018-08-06T16:49:10.204Z,34.39
2018-08-06T16:51:37.645Z,33.66
2018-08-06T16:54:05.103Z,32.25
2018-08-06T16:56:32.510Z,31.64
2018-08-06T16:58:59.988Z,30.75
2018-08-06T17:01:27.474Z,30.14
2018-08-06T17:03:55.003Z,29.84
2018-08-06T17:06:22.543Z,30.19
2018-08-06T17:08:49.973Z,30.46
2018-08-06T17:11:17.478Z,30.50
2018-08-06T17:13:44.475Z,30.44
2018-08-06T17:16:12.020Z,29.79
2018-08-06T17:18:39.680Z,28.86
2018-08-06T17:21:07.124Z,28.04
2018-08-06T17:23:34.642Z,27.92
2018-08-06T17:26:02.190Z,28.17
2018-08-06T17:28:29.788Z,28.61
2018-08-06T17:30:57.321Z,28.92
2018-08-06T17:33:24.783Z,29.15
2018-08-06T17:35:52.367Z,29.09
2018-08-06T17:38:19.983Z,28.58
2018-08-06T17:40:47.667Z,28.10
2018-08-06T17:43:15.868Z,27.80
2018-08-06T17:45:43.369Z,27.72
2018-08-06T17:48:10.836Z,27.77
2018-08-06T17:50:38.611Z,27.54
2018-08-06T17:53:06.042Z,27.41
2018-08-06T17:55:33.678Z,27.30
2018-08-06T17:58:01.103Z,27.22
2018-08-06T18:00:28.744Z,27.28
2018-08-06T18:02:56.293Z,27.58
2018-08-06T18:05:24.307Z,27.80
2018-08-06T18:07:51.791Z,27.63
2018-08-06T18:10:19.302Z,27.22
2018-08-06T18:12:46.775Z,26.84
2018-08-06T18:15:14.211Z,26.44
2018-08-06T18:17:41.684Z,26.06
2018-08-06T18:20:09.210Z,25.40
2018-08-06T18:22:36.844Z,24.51
2018-08-06T18:25:04.370Z,23.99
2018-08-06T18:27:31.863Z,23.69
2018-08-06T18:29:59.272Z,23.47
2018-08-06T18:32:27.568Z,23.57
2018-08-06T18:34:55.043Z,23.23
2018-08-06T18:37:22.688Z,22.77
2018-08-06T18:39:50.152Z,22.76
2018-08-06T18:42:17.551Z,22.99
2018-08-06T18:44:45.015Z,23.08
2018-08-06T18:47:12.456Z,23.05
2018-08-06T18:49:39.904Z,23.02
2018-08-06T18:52:07.427Z,23.19
2018-08-06T18:54:34.892Z,23.08
2018-08-06T18:57:04.889Z,22.91
2018-08-06T18:59:32.347Z,22.86
2018-08-06T19:01:59.801Z,23.07
2018-08-06T19:04:27.340Z,23.24
2018-08-06T19:06:54.892Z,23.37
2018-08-06T19:09:22.318Z,23.69
2018-08-06T19:11:49.839Z,23.65
2018-08-06T19:14:17.266Z,23.87
2018-08-06T19:16:44.724Z,23.90
2018-08-06T19:19:17.919Z,23.82
2018-08-06T19:21:45.556Z,23.81
2018-08-06T19:24:12.946Z,23.96
2018-08-06T19:26:40.405Z,24.00
2018-08-06T19:29:08.129Z,23.97
2018-08-06T19:31:35.628Z,24.12
2018-08-06T19:34:03.087Z,23.94
2018-08-06T19:36:30.559Z,23.86
2018-08-06T19:38:57.982Z,23.83
2018-08-06T19:41:25.394Z,23.79
2018-08-06T19:43:53.791Z,23.73
2018-08-06T19:46:21.254Z,23.79
2018-08-06T19:48:48.748Z,23.86
2018-08-06T19:51:16.226Z,23.76
2018-08-06T19:53:43.752Z,23.76
2018-08-06T19:56:12.798Z,23.72
2018-08-06T19:58:40.230Z,23.65
2018-08-06T20:01:07.712Z,23.65
2018-08-06T20:03:35.218Z,23.66
2018-08-06T20:06:02.712Z,23.68
2018-08-06T20:08:30.163Z,23.64
2018-08-06T20:10:57.619Z,23.81
2018-08-06T20:13:25.124Z,24.04
2018-08-06T20:15:52.796Z,24.15
2018-08-06T20:18:20.320Z,24.20
2018-08-06T20:20:47.806Z,24.26
2018-08-06T20:23:15.295Z,24.31
2018-08-06T20:25:42.714Z,24.25
2018-08-06T20:28:10.114Z,24.16
2018-08-06T20:30:37.548Z,24.09
2018-08-06T20:33:05.046Z,24.19
2018-08-06T20:35:32.541Z,24.25
2018-08-06T20:38:00.027Z,24.29
2018-08-06T20:40:27.566Z,24.01
2018-08-06T20:42:55.037Z,23.58
2018-08-06T20:45:22.477Z,23.56
2018-08-06T20:47:49.969Z,23.75
2018-08-06T20:50:17.467Z,23.76
2018-08-06T20:52:44.938Z,23.66
2018-08-06T20:55:12.485Z,23.62
2018-08-06T20:57:39.936Z,23.67
2018-08-06T21:00:07.381Z,23.47
2018-08-06T21:02:34.975Z,23.43
2018-08-06T21:05:02.327Z,23.61
2018-08-06T21:07:29.811Z,23.44
2018-08-06T21:09:57.291Z,23.37
2018-08-06T21:12:24.722Z,23.23
2018-08-06T21:14:52.220Z,23.28
2018-08-06T21:17:19.769Z,23.20
2018-08-06T21:19:47.117Z,23.13
2018-08-06T21:22:14.636Z,22.92
2018-08-06T21:24:42.078Z,22.92
2018-08-06T21:27:09.752Z,23.05
2018-08-06T21:29:37.240Z,23.06
2018-08-06T21:32:04.696Z,23.02
2018-08-06T21:34:32.137Z,23.28
2018-08-06T21:36:59.567Z,23.36
2018-08-06T21:39:27.058Z,23.43
2018-08-06T21:41:54.501Z,23.45
2018-08-06T21:44:22.010Z,23.56
2018-08-06T21:46:49.442Z,23.58
2018-08-06T21:49:16.951Z,23.66
2018-08-06T21:51:44.459Z,23.58
2018-08-06T21:54:11.903Z,23.48
2018-08-06T21:56:39.290Z,23.31
2018-08-06T21:59:06.788Z,23.35
2018-08-06T22:01:34.222Z,23.39
2018-08-06T22:04:01.663Z,23.44
2018-08-06T22:06:29.102Z,23.43
2018-08-06T22:08:56.554Z,23.26
2018-08-06T22:11:24.003Z,23.27
2018-08-06T22:13:51.471Z,23.32
2018-08-06T22:16:18.909Z,23.13
2018-08-06T22:18:47.034Z,23.02
2018-08-06T22:21:14.507Z,23.05
2018-08-06T22:23:41.926Z,23.07
2018-08-06T22:26:09.495Z,23.11
2018-08-06T22:28:36.920Z,23.13
2018-08-06T22:31:04.309Z,23.13
2018-08-06T22:33:31.928Z,23.26
2018-08-06T22:36:01.302Z,23.42
2018-08-06T22:38:28.715Z,23.47
2018-08-06T22:40:56.119Z,23.45
2018-08-06T22:43:23.515Z,23.47
2018-08-06T22:45:51.072Z,23.45
2018-08-06T22:48:18.518Z,23.39
2018-08-06T22:50:45.986Z,23.31
2018-08-06T22:53:13.435Z,23.24
2018-08-06T22:55:40.840Z,23.31
2018-08-06T22:58:08.258Z,23.44
2018-08-06T23:00:35.823Z,23.40
2018-08-06T23:03:03.228Z,23.18
2018-08-06T23:05:30.624Z,23.20
2018-08-06T23:07:58.024Z,23.43
2018-08-06T23:10:25.636Z,23.55
2018-08-06T23:12:53.058Z,23.58
2018-08-06T23:15:20.485Z,23.54
2018-08-06T23:17:47.882Z,23.48
2018-08-06T23:20:15.295Z,23.48
2018-08-06T23:22:42.783Z,23.40
2018-08-06T23:25:10.187Z,23.40
2018-08-06T23:27:37.583Z,23.35
2018-08-06T23:30:04.997Z,23.36
2018-08-06T23:32:32.405Z,23.44
2018-08-06T23:34:59.823Z,23.42
2018-08-06T23:37:27.232Z,23.38
2018-08-06T23:39:54.697Z,23.32
2018-08-06T23:42:22.136Z,23.33
2018-08-06T23:44:49.671Z,23.34
2018-08-06T23:47:17.077Z,23.36
2018-08-06T23:49:44.494Z,23.37
2018-08-06T23:52:11.898Z,23.57
2018-08-06T23:54:39.309Z,23.54
2018-08-06T23:57:06.719Z,23.50
2018-08-06T23:59:34.126Z,23.43
